createdAt,value
2023-05-12T00:00:13.283Z,1.73
2023-05-12T00:05:12.309Z,1.85
2023-05-12T00:07:42.495Z,2.00
2023-05-12T00:10:10.171Z,2.35
2023-05-12T00:12:37.998Z,2.17
2023-05-12T00:15:05.994Z,2.15
2023-05-12T00:17:33.641Z,2.42
2023-05-12T00:20:01.423Z,2.10
2023-05-12T00:22:28.998Z,2.40
2023-05-12T00:24:56.455Z,2.17
2023-05-12T00:27:23.867Z,2.50
2023-05-12T00:29:51.259Z,2.05
2023-05-12T00:32:18.653Z,2.08
2023-05-12T00:34:46.131Z,2.00
2023-05-12T00:37:13.554Z,1.90
2023-05-12T00:39:41.115Z,2.03
2023-05-12T00:42:08.691Z,1.95
2023-05-12T00:44:36.653Z,1.70
2023-05-12T00:47:05.282Z,1.60
2023-05-12T00:49:33.062Z,1.75
2023-05-12T00:52:02.483Z,1.90
2023-05-12T00:54:30.479Z,1.42
2023-05-12T00:56:58.213Z,1.77
2023-05-12T00:59:25.630Z,1.73
2023-05-12T01:01:53.268Z,1.80
2023-05-12T01:04:20.904Z,1.75
2023-05-12T01:06:59.977Z,2.63
2023-05-12T01:09:27.532Z,2.45
2023-05-12T01:11:56.045Z,3.20
2023-05-12T01:14:23.762Z,3.17
2023-05-12T01:16:53.977Z,2.85
2023-05-12T01:19:48.603Z,2.97
2023-05-12T01:22:17.622Z,3.05
2023-05-12T01:24:49.593Z,3.00
2023-05-12T01:27:17.936Z,3.28
2023-05-12T01:29:47.299Z,3.75
2023-05-12T01:32:17.839Z,3.10
2023-05-12T01:34:45.354Z,3.15
2023-05-12T01:37:12.866Z,2.95
2023-05-12T01:39:41.695Z,3.03
2023-05-12T01:42:13.377Z,3.13
2023-05-12T01:44:59.305Z,3.05
2023-05-12T01:47:27.893Z,3.25
2023-05-12T01:50:03.366Z,3.05
2023-05-12T01:52:30.796Z,3.00
2023-05-12T01:54:58.266Z,2.97
2023-05-12T01:57:27.213Z,3.30
2023-05-12T02:00:00.089Z,3.47
2023-05-12T02:02:28.383Z,3.78
2023-05-12T02:04:55.898Z,4.38
2023-05-12T02:07:23.256Z,5.07
2023-05-12T02:09:51.154Z,4.65
2023-05-12T02:12:19.107Z,5.28
2023-05-12T02:14:49.003Z,5.55
2023-05-12T02:17:17.282Z,5.88
2023-05-12T02:19:45.520Z,7.15
2023-05-12T02:22:15.356Z,7.00
2023-05-12T02:24:43.673Z,6.70
2023-05-12T02:27:11.179Z,6.60
2023-05-12T02:29:40.681Z,6.50
2023-05-12T02:32:09.134Z,7.05
2023-05-12T02:34:36.607Z,6.85
2023-05-12T02:37:04.243Z,6.72
2023-05-12T02:39:31.893Z,5.57
2023-05-12T02:41:59.301Z,5.55
2023-05-12T02:44:27.187Z,4.38
2023-05-12T02:46:54.588Z,4.38
2023-05-12T02:49:23.360Z,5.30
2023-05-12T02:51:50.974Z,4.93
2023-05-12T02:54:18.391Z,3.63
2023-05-12T02:56:48.556Z,3.80
2023-05-12T02:59:16.046Z,3.35
2023-05-12T03:01:43.542Z,3.42
2023-05-12T03:04:10.942Z,3.10
2023-05-12T03:06:38.430Z,1.90
2023-05-12T03:09:05.842Z,1.60
2023-05-12T03:11:33.234Z,2.65
2023-05-12T03:14:01.741Z,3.33
2023-05-12T03:16:29.347Z,3.72
2023-05-12T03:18:56.813Z,4.05
2023-05-12T03:21:24.629Z,4.65
2023-05-12T03:23:52.769Z,5.22
2023-05-12T03:26:20.133Z,5.22
2023-05-12T03:28:47.510Z,5.70
2023-05-12T03:31:14.967Z,5.50
2023-05-12T03:33:42.428Z,5.05
2023-05-12T03:36:10.353Z,4.82
2023-05-12T03:38:38.059Z,5.00
2023-05-12T03:41:06.928Z,4.90
2023-05-12T03:43:36.030Z,4.10
2023-05-12T03:46:04.944Z,4.45
2023-05-12T03:48:32.423Z,4.20
2023-05-12T03:51:00.062Z,4.35
2023-05-12T03:53:31.825Z,5.63
2023-05-12T03:56:04.252Z,4.60
2023-05-12T03:58:33.336Z,4.35
2023-05-12T04:01:01.838Z,4.65
2023-05-12T04:03:32.764Z,5.22
2023-05-12T04:06:01.340Z,4.50
2023-05-12T04:08:29.132Z,4.28
2023-05-12T04:10:58.157Z,3.95
2023-05-12T04:13:26.034Z,4.20
2023-05-12T04:16:00.088Z,4.28
2023-05-12T04:18:28.418Z,4.47
2023-05-12T04:20:56.195Z,4.55
2023-05-12T04:23:24.039Z,4.15
2023-05-12T04:25:51.700Z,4.05
2023-05-12T04:28:20.202Z,4.30
2023-05-12T04:30:48.477Z,4.15
2023-05-12T04:33:15.791Z,4.50
2023-05-12T04:35:43.936Z,4.40
2023-05-12T04:38:13.401Z,4.53
2023-05-12T04:40:41.660Z,4.10
2023-05-12T04:45:58.620Z,4.28
2023-05-12T04:48:29.037Z,4.15
2023-05-12T04:51:00.571Z,4.50
2023-05-12T04:53:28.450Z,3.97
2023-05-12T04:55:56.738Z,3.72
2023-05-12T04:58:24.881Z,4.10
2023-05-12T05:00:53.113Z,3.92
2023-05-12T05:03:20.657Z,4.57
2023-05-12T05:05:49.107Z,4.72
2023-05-12T05:08:17.001Z,4.72
2023-05-12T05:10:44.477Z,5.40
2023-05-12T05:13:11.969Z,5.40
2023-05-12T05:15:39.348Z,5.03
2023-05-12T05:18:07.169Z,5.15
2023-05-12T05:20:34.766Z,5.25
2023-05-12T05:23:02.401Z,5.22
2023-05-12T05:25:29.856Z,5.82
2023-05-12T05:27:57.981Z,5.13
2023-05-12T05:30:25.677Z,5.18
2023-05-12T05:32:53.296Z,5.28
2023-05-12T05:35:22.162Z,5.03
2023-05-12T05:37:53.730Z,4.68
2023-05-12T05:40:22.035Z,5.03
2023-05-12T05:42:49.430Z,4.88
2023-05-12T05:45:16.981Z,4.68
2023-05-12T05:47:44.829Z,4.53
2023-05-12T05:50:12.785Z,4.75
2023-05-12T05:52:42.114Z,4.32
2023-05-12T05:55:10.119Z,3.85
2023-05-12T05:57:37.899Z,4.13
2023-05-12T06:00:08.972Z,3.90
2023-05-12T06:02:45.991Z,3.60
2023-05-12T06:07:45.641Z,3.10
2023-05-12T06:10:13.011Z,2.78
2023-05-12T06:12:41.197Z,2.50
2023-05-12T06:15:09.141Z,2.83
2023-05-12T06:17:36.588Z,2.78
2023-05-12T06:20:05.337Z,2.33
2023-05-12T06:22:34.722Z,2.65
2023-05-12T06:25:02.741Z,2.75
2023-05-12T06:27:30.223Z,3.15
2023-05-12T06:29:57.647Z,2.70
2023-05-12T06:32:26.997Z,2.65
2023-05-12T06:34:54.450Z,3.08
2023-05-12T06:37:21.786Z,3.35
2023-05-12T06:39:49.200Z,2.80
2023-05-12T06:42:34.697Z,2.78
2023-05-12T06:45:09.716Z,3.25
2023-05-12T06:47:37.206Z,2.88
2023-05-12T06:50:05.242Z,2.80
2023-05-12T06:52:32.879Z,2.75
2023-05-12T06:55:00.283Z,3.00
2023-05-12T06:57:27.858Z,2.53
2023-05-12T06:59:55.236Z,2.80
2023-05-12T07:02:22.760Z,2.97
2023-05-12T07:04:50.195Z,2.88
2023-05-12T07:07:20.377Z,2.55
2023-05-12T07:09:47.933Z,3.08
2023-05-12T07:12:17.083Z,2.70
2023-05-12T07:14:44.475Z,3.15
2023-05-12T07:17:11.795Z,2.90
2023-05-12T07:19:40.213Z,2.95
2023-05-12T07:22:07.897Z,3.00
2023-05-12T07:24:35.345Z,2.75
2023-05-12T07:27:02.862Z,3.20
2023-05-12T07:29:30.240Z,2.88
2023-05-12T07:31:57.533Z,3.22
2023-05-12T07:34:24.909Z,2.30
2023-05-12T07:36:52.318Z,2.88
2023-05-12T07:39:23.693Z,2.78
2023-05-12T07:41:52.871Z,2.13
2023-05-12T07:44:20.297Z,2.60
2023-05-12T07:46:47.654Z,2.33
2023-05-12T07:49:17.360Z,2.38
2023-05-12T07:51:44.695Z,2.17
2023-05-12T07:54:12.255Z,2.03
2023-05-12T07:56:39.755Z,1.60
2023-05-12T07:59:07.365Z,1.40
2023-05-12T08:01:35.007Z,1.70
2023-05-12T08:04:02.454Z,1.45
2023-05-12T08:06:29.908Z,1.30
2023-05-12T08:08:58.450Z,0.82
2023-05-12T08:11:27.651Z,0.90
2023-05-12T08:13:55.007Z,0.70
2023-05-12T08:16:23.023Z,0.60
2023-05-12T08:18:50.539Z,0.40
2023-05-12T08:21:20.406Z,0.30
2023-05-12T08:23:47.739Z,0.30
2023-05-12T08:26:15.055Z,0.40
2023-05-12T08:28:42.496Z,0.50
2023-05-12T08:31:10.047Z,0.50
2023-05-12T08:33:37.537Z,0.50
2023-05-12T08:36:05.458Z,0.40
2023-05-12T08:38:34.399Z,0.40
2023-05-12T08:41:12.622Z,0.40
2023-05-12T08:43:52.322Z,0.45
2023-05-12T08:46:21.050Z,0.40
2023-05-12T08:48:50.778Z,0.40
2023-05-12T08:51:20.501Z,0.30
2023-05-12T08:53:50.141Z,0.40
2023-05-12T08:58:51.548Z,0.47
2023-05-12T09:01:19.051Z,0.40
2023-05-12T09:03:46.687Z,0.38
2023-05-12T09:06:14.535Z,0.40
2023-05-12T09:08:42.410Z,0.32
2023-05-12T09:11:12.277Z,0.35
2023-05-12T09:13:50.729Z,0.30
2023-05-12T09:16:24.152Z,0.38
2023-05-12T09:18:57.097Z,0.30
2023-05-12T09:21:25.227Z,0.32
2023-05-12T09:24:00.665Z,0.38
2023-05-12T09:26:28.936Z,0.40
2023-05-12T09:29:08.580Z,0.40
2023-05-12T09:31:38.865Z,0.50
2023-05-12T09:34:10.112Z,0.38
2023-05-12T09:36:37.593Z,0.50
2023-05-12T09:39:07.523Z,0.50
2023-05-12T09:41:36.502Z,0.60
2023-05-12T09:44:04.801Z,0.52
2023-05-12T09:46:35.024Z,0.47
2023-05-12T09:49:06.057Z,0.60
2023-05-12T09:51:36.369Z,0.40
2023-05-12T09:54:05.729Z,0.47
2023-05-12T09:56:37.752Z,0.40
2023-05-12T09:59:05.659Z,0.50
2023-05-12T10:01:33.409Z,0.50
2023-05-12T10:04:04.164Z,0.50
2023-05-12T10:06:40.676Z,0.40
2023-05-12T10:09:25.771Z,0.50
2023-05-12T10:11:54.076Z,0.30
2023-05-12T10:14:22.939Z,0.30
2023-05-12T10:16:52.035Z,0.63
2023-05-12T10:19:20.581Z,0.40
2023-05-12T10:21:48.838Z,0.50
2023-05-12T10:24:19.367Z,0.63
2023-05-12T10:26:47.491Z,0.63
2023-05-12T10:29:15.482Z,0.70
2023-05-12T10:31:45.350Z,0.70
2023-05-12T10:34:21.636Z,0.70
2023-05-12T10:36:54.051Z,0.52
2023-05-12T10:39:29.366Z,0.32
2023-05-12T10:42:09.168Z,0.30
2023-05-12T10:44:50.964Z,0.35
2023-05-12T10:47:18.977Z,0.30
2023-05-12T10:49:46.519Z,0.20
2023-05-12T10:52:20.174Z,0.30
2023-05-12T10:54:47.727Z,0.40
2023-05-12T10:57:20.677Z,0.50
2023-05-12T10:59:58.770Z,0.40
2023-05-12T11:02:36.002Z,0.40
2023-05-12T11:05:11.166Z,0.40
2023-05-12T11:07:39.781Z,0.40
2023-05-12T11:10:10.490Z,0.28
2023-05-12T11:12:38.188Z,0.47
2023-05-12T11:15:07.080Z,0.50
2023-05-12T11:17:39.916Z,0.63
2023-05-12T11:20:09.844Z,0.60
2023-05-12T11:22:37.410Z,0.60
2023-05-12T11:25:12.064Z,0.50
2023-05-12T11:27:45.411Z,0.45
2023-05-12T11:30:13.603Z,0.30
2023-05-12T11:32:41.376Z,0.40
2023-05-12T11:35:17.773Z,0.30
2023-05-12T11:37:46.368Z,0.28
2023-05-12T11:40:21.824Z,0.30
2023-05-12T11:42:52.667Z,0.30
2023-05-12T11:45:26.207Z,0.50
2023-05-12T11:48:04.997Z,0.35
2023-05-12T11:50:32.513Z,0.40
2023-05-12T11:52:59.916Z,0.40
2023-05-12T11:55:27.464Z,0.50
2023-05-12T11:58:00.981Z,0.35
2023-05-12T12:00:31.085Z,0.45
2023-05-12T12:03:15.060Z,0.40
2023-05-12T12:05:45.387Z,0.50
2023-05-12T12:08:15.608Z,0.52
2023-05-12T12:10:46.412Z,0.60
2023-05-12T12:13:20.924Z,0.50
2023-05-12T12:15:51.224Z,0.60
2023-05-12T12:18:19.203Z,0.70
2023-05-12T12:20:47.377Z,0.40
2023-05-12T12:23:15.038Z,0.30
2023-05-12T12:25:43.588Z,0.70
2023-05-12T12:28:11.069Z,0.43
2023-05-12T12:30:38.828Z,0.20
2023-05-12T12:33:06.251Z,0.30
2023-05-12T12:35:33.656Z,0.20
2023-05-12T12:38:01.018Z,0.30
2023-05-12T12:40:28.516Z,0.40
2023-05-12T12:42:56.077Z,0.20
2023-05-12T12:45:23.648Z,0.30
2023-05-12T12:47:54.966Z,0.35
2023-05-12T12:50:25.046Z,0.40
2023-05-12T12:52:53.194Z,0.30
2023-05-12T12:55:21.904Z,0.40
2023-05-12T12:57:49.444Z,0.20
2023-05-12T13:00:17.375Z,0.30
2023-05-12T13:02:45.176Z,0.22
2023-05-12T13:05:12.713Z,0.25
2023-05-12T13:07:40.028Z,0.40
2023-05-12T13:10:08.119Z,0.30
2023-05-12T13:12:36.080Z,0.30
2023-05-12T13:15:03.948Z,0.20
2023-05-12T13:17:33.711Z,0.40
2023-05-12T13:20:01.164Z,0.20
2023-05-12T13:22:29.100Z,0.40
2023-05-12T13:24:56.524Z,0.55
2023-05-12T13:27:23.890Z,0.52
2023-05-12T13:29:51.972Z,0.50
2023-05-12T13:32:20.721Z,0.50
2023-05-12T13:34:48.146Z,0.40
2023-05-12T13:37:15.761Z,0.50
2023-05-12T13:39:43.340Z,0.50
2023-05-12T13:42:10.827Z,0.50
2023-05-12T13:44:38.240Z,0.50
2023-05-12T13:47:08.147Z,0.60
2023-05-12T13:49:36.446Z,0.60
2023-05-12T13:52:04.203Z,0.73
2023-05-12T13:54:32.167Z,0.60
2023-05-12T13:56:59.728Z,0.77
2023-05-12T13:59:27.057Z,0.90
2023-05-12T14:01:54.870Z,0.60
2023-05-12T14:04:22.351Z,0.82
2023-05-12T14:06:49.954Z,0.82
2023-05-12T14:09:17.518Z,0.90
2023-05-12T14:11:44.854Z,0.88
2023-05-12T14:14:12.694Z,0.95
2023-05-12T14:16:40.149Z,0.80
2023-05-12T14:19:08.305Z,0.82
2023-05-12T14:21:35.927Z,1.08
2023-05-12T14:24:03.653Z,0.73
2023-05-12T14:26:31.063Z,1.00
2023-05-12T14:28:58.442Z,0.88
2023-05-12T14:31:25.904Z,1.00
2023-05-12T14:33:53.358Z,0.95
2023-05-12T14:36:20.866Z,1.10
2023-05-12T14:38:49.223Z,1.00
2023-05-12T14:41:16.579Z,0.90
2023-05-12T14:43:43.941Z,0.93
2023-05-12T14:46:11.311Z,1.00
2023-05-12T14:48:38.762Z,1.08
2023-05-12T14:51:06.229Z,0.98
2023-05-12T14:53:35.606Z,0.90
2023-05-12T14:56:02.958Z,1.05
2023-05-12T14:58:30.886Z,1.20
2023-05-12T15:00:59.369Z,0.95
2023-05-12T15:03:26.830Z,1.02
2023-05-12T15:06:05.517Z,1.10
2023-05-12T15:08:34.365Z,1.05
2023-05-12T15:11:01.823Z,1.00
2023-05-12T15:13:29.179Z,1.02
2023-05-12T15:15:57.095Z,0.90
2023-05-12T15:18:24.860Z,0.90
2023-05-12T15:20:52.490Z,1.00
2023-05-12T15:23:19.882Z,0.82
2023-05-12T15:25:50.246Z,0.90
2023-05-12T15:28:17.669Z,0.95
2023-05-12T15:30:45.524Z,1.20
2023-05-12T15:33:13.047Z,1.30
2023-05-12T15:35:40.759Z,1.05
2023-05-12T15:38:08.380Z,0.90
2023-05-12T15:40:37.707Z,1.10
2023-05-12T15:43:05.129Z,1.65
2023-05-12T15:45:32.669Z,1.23
2023-05-12T15:48:00.186Z,1.13
2023-05-12T15:50:27.715Z,1.17
2023-05-12T15:52:55.068Z,1.05
2023-05-12T15:55:22.733Z,1.10
2023-05-12T15:57:53.746Z,1.20
2023-05-12T16:00:22.610Z,1.02
2023-05-12T16:02:50.348Z,1.00
2023-05-12T16:05:17.992Z,1.00
2023-05-12T16:07:47.310Z,0.90
2023-05-12T16:10:14.827Z,0.90
2023-05-12T16:12:42.267Z,1.00
2023-05-12T16:15:11.179Z,0.80
2023-05-12T16:17:38.652Z,1.00
2023-05-12T16:20:07.817Z,0.90
2023-05-12T16:22:35.146Z,1.02
2023-05-12T16:25:02.519Z,0.80
2023-05-12T16:27:32.012Z,1.00
2023-05-12T16:29:59.450Z,0.80
2023-05-12T16:32:26.880Z,1.10
2023-05-12T16:34:54.235Z,0.95
2023-05-12T16:37:22.856Z,1.00
2023-05-12T16:39:50.233Z,0.85
2023-05-12T16:42:17.649Z,0.80
2023-05-12T16:44:45.052Z,0.88
2023-05-12T16:47:12.492Z,0.52
2023-05-12T16:49:39.851Z,0.80
2023-05-12T16:52:07.359Z,0.80
2023-05-12T16:54:34.846Z,0.80
2023-05-12T16:57:03.141Z,0.73
2023-05-12T16:59:32.464Z,0.70
2023-05-12T17:02:00.286Z,1.00
2023-05-12T17:04:29.889Z,0.90
2023-05-12T17:06:58.009Z,1.00
2023-05-12T17:09:25.365Z,1.17
2023-05-12T17:11:52.960Z,1.00
2023-05-12T17:14:20.277Z,1.00
2023-05-12T17:16:47.704Z,1.08
2023-05-12T17:19:18.858Z,1.15
2023-05-12T17:21:46.381Z,1.20
2023-05-12T17:24:14.404Z,1.20
2023-05-12T17:26:42.288Z,1.10
2023-05-12T17:29:09.685Z,1.00
2023-05-12T17:31:40.765Z,0.93
2023-05-12T17:34:08.205Z,1.27
2023-05-12T17:36:35.697Z,1.17
2023-05-12T17:39:03.201Z,1.10
2023-05-12T17:41:30.625Z,1.00
2023-05-12T17:43:58.003Z,1.00
2023-05-12T17:46:25.442Z,1.10
2023-05-12T17:48:53.138Z,1.10
2023-05-12T17:51:20.553Z,1.08
2023-05-12T17:53:47.945Z,1.20
2023-05-12T17:56:15.319Z,1.33
2023-05-12T17:58:42.739Z,0.90
2023-05-12T18:01:10.200Z,0.80
2023-05-12T18:03:38.048Z,0.70
2023-05-12T18:06:05.894Z,1.02
2023-05-12T18:08:33.299Z,0.52
2023-05-12T18:11:01.305Z,0.68
2023-05-12T18:13:28.688Z,0.70
2023-05-12T18:15:56.476Z,0.63
2023-05-12T18:18:23.839Z,0.70
2023-05-12T18:20:51.336Z,0.93
2023-05-12T18:23:18.652Z,0.68
2023-05-12T18:25:46.963Z,0.93
2023-05-12T18:28:15.094Z,1.10
2023-05-12T18:30:42.550Z,0.90
2023-05-12T18:33:10.048Z,1.20
2023-05-12T18:35:37.568Z,0.90
2023-05-12T18:38:04.945Z,1.40
2023-05-12T18:40:33.744Z,1.80
2023-05-12T18:43:01.142Z,1.75
2023-05-12T18:45:28.526Z,1.95
2023-05-12T18:47:56.017Z,1.30
2023-05-12T18:50:23.697Z,1.42
2023-05-12T18:52:51.034Z,1.30
2023-05-12T18:55:18.556Z,1.33
2023-05-12T18:57:45.976Z,1.50
2023-05-12T19:00:13.788Z,1.38
2023-05-12T19:02:42.438Z,1.60
2023-05-12T19:05:10.026Z,1.38
2023-05-12T19:07:37.430Z,1.42
2023-05-12T19:10:05.379Z,1.80
2023-05-12T19:12:32.820Z,1.35
2023-05-12T19:15:00.714Z,1.60
2023-05-12T19:17:28.332Z,1.75
2023-05-12T19:19:55.849Z,1.85
2023-05-12T19:22:24.822Z,1.88
2023-05-12T19:24:52.453Z,1.98
2023-05-12T19:27:19.884Z,2.17
2023-05-12T19:29:47.328Z,1.98
2023-05-12T19:32:15.002Z,1.60
2023-05-12T19:34:42.554Z,1.73
2023-05-12T19:37:09.978Z,1.58
2023-05-12T19:39:37.383Z,1.90
2023-05-12T19:42:05.017Z,1.55
2023-05-12T19:44:32.366Z,1.50
2023-05-12T19:47:04.622Z,1.20
2023-05-12T19:49:36.137Z,1.25
2023-05-12T19:52:04.641Z,1.27
2023-05-12T19:54:32.344Z,1.40
2023-05-12T19:56:59.767Z,1.10
2023-05-12T19:59:27.199Z,1.50
2023-05-12T20:01:55.305Z,1.02
2023-05-12T20:04:23.552Z,1.27
2023-05-12T20:06:51.521Z,1.15
2023-05-12T20:09:20.601Z,1.13
2023-05-12T20:11:48.493Z,1.20
2023-05-12T20:14:18.796Z,0.90
2023-05-12T20:16:46.184Z,0.70
2023-05-12T20:19:14.125Z,0.68
2023-05-12T20:21:41.589Z,0.70
2023-05-12T20:24:09.512Z,0.80
2023-05-12T20:26:40.740Z,0.63
2023-05-12T20:29:08.297Z,0.88
2023-05-12T20:31:35.851Z,0.90
2023-05-12T20:34:03.424Z,0.70
2023-05-12T20:36:32.360Z,0.80
2023-05-12T20:39:00.272Z,0.88
2023-05-12T20:41:27.960Z,0.85
2023-05-12T20:43:55.387Z,0.80
2023-05-12T20:46:23.141Z,0.90
2023-05-12T20:48:50.657Z,0.90
2023-05-12T20:51:18.069Z,0.98
2023-05-12T20:53:46.130Z,0.80
2023-05-12T20:56:13.455Z,1.20
2023-05-12T20:58:41.030Z,1.00
2023-05-12T21:01:08.366Z,1.00
2023-05-12T21:03:35.912Z,1.10
2023-05-12T21:06:05.444Z,1.20
2023-05-12T21:08:35.577Z,1.00
2023-05-12T21:11:02.910Z,1.10
2023-05-12T21:13:30.361Z,0.98
2023-05-12T21:15:57.934Z,1.00
2023-05-12T21:18:25.367Z,1.00
2023-05-12T21:20:52.695Z,1.00
2023-05-12T21:23:20.130Z,1.00
2023-05-12T21:25:49.165Z,1.15
2023-05-12T21:28:16.618Z,0.90
2023-05-12T21:30:43.981Z,1.00
2023-05-12T21:33:11.348Z,1.30
2023-05-12T21:35:38.737Z,1.10
2023-05-12T21:38:08.476Z,1.25
2023-05-12T21:40:38.895Z,1.30
2023-05-12T21:43:06.302Z,1.70
2023-05-12T21:45:33.689Z,1.45
2023-05-12T21:48:01.158Z,1.40
2023-05-12T21:50:28.585Z,1.90
2023-05-12T21:52:56.114Z,1.75
2023-05-12T21:55:26.382Z,1.70
2023-05-12T21:57:53.801Z,1.40
2023-05-12T22:00:21.598Z,1.70
2023-05-12T22:02:49.551Z,1.95
2023-05-12T22:05:17.109Z,1.63
2023-05-12T22:07:44.616Z,2.10
2023-05-12T22:10:12.004Z,1.83
2023-05-12T22:12:39.701Z,2.25
2023-05-12T22:15:07.694Z,2.13
2023-05-12T22:17:35.076Z,2.25
2023-05-12T22:20:02.686Z,2.20
2023-05-12T22:22:30.045Z,2.08
2023-05-12T22:24:58.826Z,2.05
2023-05-12T22:27:26.202Z,2.20
2023-05-12T22:29:55.084Z,2.00
2023-05-12T22:32:23.286Z,2.05
2023-05-12T22:34:53.085Z,1.88
2023-05-12T22:37:20.950Z,2.25
2023-05-12T22:39:48.340Z,2.08
2023-05-12T22:42:15.779Z,1.90
2023-05-12T22:44:43.167Z,2.05
2023-05-12T22:47:10.799Z,1.92
2023-05-12T22:49:38.440Z,2.25
2023-05-12T22:52:06.110Z,2.00
2023-05-12T22:54:33.517Z,1.92
2023-05-12T22:57:01.053Z,2.00
2023-05-12T22:59:31.425Z,1.70
2023-05-12T23:01:58.842Z,2.05
2023-05-12T23:04:26.265Z,1.95
2023-05-12T23:06:53.659Z,2.00
2023-05-12T23:09:21.186Z,2.33
2023-05-12T23:11:48.571Z,2.08
2023-05-12T23:14:15.968Z,2.25
2023-05-12T23:16:43.565Z,2.33
2023-05-12T23:19:11.056Z,2.17
2023-05-12T23:21:38.583Z,2.30
2023-05-12T23:24:06.415Z,2.20
2023-05-12T23:26:33.764Z,2.17
2023-05-12T23:29:01.251Z,2.40
2023-05-12T23:31:28.737Z,2.45
2023-05-12T23:33:58.742Z,2.53
2023-05-12T23:36:26.139Z,2.30
2023-05-12T23:38:54.562Z,2.28
2023-05-12T23:41:25.670Z,2.00
2023-05-12T23:43:53.017Z,2.40
2023-05-12T23:46:20.420Z,2.33
2023-05-12T23:48:47.816Z,2.10
2023-05-12T23:51:15.144Z,2.30
2023-05-12T23:53:42.446Z,2.80
2023-05-12T23:56:10.106Z,2.53
2023-05-12T23:58:37.419Z,2.70
